Lansing, Kansas
Current Conditions -  °F | °C
As of 9:53 PM on Sunday 23 Nov 2014 (Local Time) from KMCI Reporting Station
Overcast Overcast  
Wind Chill: 32°   Ceiling: 7500
Heat Index: 40°   Visibility: 10mi
Dew Point: 36°   Wind: 15mph
Humidity: 86%   Direction: 320°NW
Pressure: 29.47"   Gusts: 21mph
Location:  39.24°N, 94.9°W
Report Text: KMCI 240353Z 32013G18KT 10SM BKN075 OVC090 04/02 A2947 RMK AO2 PK WND 35028/0300 RAE14 SLP977 P0000 T00440022 $
Loading
Personal Weather Stations






























Interactive Weather Map New forecast layout! Learn more

10-Day Weather Forecast

Advertisements
Track Severe Weather on mobile